Time;durP1;ratioP1;P1;durP2;ratioP2;P2;SDS_P1;SDS_P2;PMS_P1;PMS_P2;Temp;Humidity;BMP_temperature;BMP_pressure;BME280_temperature;BME280_humidity;BME280_pressure;Samples;Min_cycle;Max_cycle;Signal;HPM_P1;HPM_P2
2024/03/01 00:01:23;;;;;;;18.15;12.48;;;;;;;;;;5094080;28;20382;-60
2024/03/01 00:03:50;;;;;;;17.10;11.88;;;;;;;;;;5094035;28;20052;-59
2024/03/01 00:06:16;;;;;;;16.85;11.35;;;;;;;;;;5093904;28;20063;-59
2024/03/01 00:08:43;;;;;;;15.63;11.18;;;;;;;;;;5093837;28;20051;-59
2024/03/01 00:11:11;;;;;;;15.63;11.23;;;;;;;;;;5093782;28;20044;-59
2024/03/01 00:13:38;;;;;;;14.82;11.00;;;;;;;;;;5093882;28;20056;-59
2024/03/01 00:16:05;;;;;;;15.80;11.27;;;;;;;;;;5093784;28;20059;-59
2024/03/01 00:18:32;;;;;;;18.42;11.73;;;;;;;;;;5093125;28;20070;-59
2024/03/01 00:20:59;;;;;;;16.35;11.63;;;;;;;;;;5093350;28;20052;-58
2024/03/01 00:23:26;;;;;;;18.08;11.43;;;;;;;;;;5093435;28;20047;-59
2024/03/01 00:25:53;;;;;;;16.02;12.43;;;;;;;;;;5093669;28;20048;-59
2024/03/01 00:28:21;;;;;;;19.83;12.73;;;;;;;;;;5093606;28;20511;-59
2024/03/01 00:30:48;;;;;;;16.88;12.05;;;;;;;;;;5093277;28;20413;-59
2024/03/01 00:33:15;;;;;;;17.30;12.25;;;;;;;;;;5093533;28;20063;-60
2024/03/01 00:35:43;;;;;;;16.90;12.23;;;;;;;;;;5093171;28;20068;-59
2024/03/01 00:38:10;;;;;;;17.77;11.70;;;;;;;;;;5093455;28;20052;-60
2024/03/01 00:40:37;;;;;;;17.02;12.20;;;;;;;;;;5093335;28;20477;-59
2024/03/01 00:43:04;;;;;;;17.10;11.95;;;;;;;;;;5093326;28;20404;-60
2024/03/01 00:45:32;;;;;;;17.10;12.40;;;;;;;;;;5092954;28;20055;-59
2024/03/01 00:47:59;;;;;;;16.27;11.68;;;;;;;;;;5093274;28;20064;-59
2024/03/01 00:50:26;;;;;;;16.95;11.57;;;;;;;;;;5093236;28;20374;-59
2024/03/01 00:52:53;;;;;;;15.23;11.98;;;;;;;;;;5092968;28;20500;-59
2024/03/01 00:55:19;;;;;;;16.55;12.48;;;;;;;;;;5093046;28;20056;-59
2024/03/01 00:57:46;;;;;;;16.88;12.02;;;;;;;;;;5093079;28;20059;-60
2024/03/01 01:00:13;;;;;;;16.75;11.48;;;;;;;;;;5093045;28;20048;-60
2024/03/01 01:02:41;;;;;;;17.55;12.45;;;;;;;;;;5093144;28;20048;-60
2024/03/01 01:05:08;;;;;;;16.48;12.18;;;;;;;;;;5093157;28;20059;-60
2024/03/01 01:07:35;;;;;;;16.55;12.52;;;;;;;;;;5093006;28;20425;-60
2024/03/01 01:10:03;;;;;;;16.75;12.45;;;;;;;;;;5092708;28;20055;-59
2024/03/01 01:12:30;;;;;;;16.90;12.30;;;;;;;;;;5092570;28;20056;-59
2024/03/01 01:14:57;;;;;;;17.90;12.40;;;;;;;;;;5092917;28;20056;-60
2024/03/01 01:17:24;;;;;;;16.20;11.80;;;;;;;;;;5092551;28;20056;-60
2024/03/01 01:19:52;;;;;;;15.40;11.98;;;;;;;;;;5092787;28;20048;-61
2024/03/01 01:22:19;;;;;;;15.65;12.13;;;;;;;;;;5092600;28;20056;-60
2024/03/01 01:24:46;;;;;;;16.17;12.27;;;;;;;;;;5092499;28;20059;-59
2024/03/01 01:27:13;;;;;;;18.98;12.95;;;;;;;;;;5092687;28;20044;-60
2024/03/01 01:29:39;;;;;;;17.13;11.98;;;;;;;;;;5092738;28;20055;-60
2024/03/01 01:32:07;;;;;;;16.52;13.13;;;;;;;;;;5092418;28;20052;-60
2024/03/01 01:34:34;;;;;;;17.25;11.88;;;;;;;;;;5092560;28;20055;-60
2024/03/01 01:37:03;;;;;;;17.10;11.98;;;;;;;;;;5092320;28;20074;-59
2024/03/01 01:39:30;;;;;;;16.75;11.63;;;;;;;;;;5092670;28;20051;-60
2024/03/01 01:41:58;;;;;;;16.42;11.25;;;;;;;;;;5092760;28;20048;-60
2024/03/01 01:44:25;;;;;;;15.70;11.60;;;;;;;;;;5092531;28;20052;-60
2024/03/01 01:46:52;;;;;;;17.38;11.90;;;;;;;;;;5092473;28;20048;-61
2024/03/01 01:49:19;;;;;;;15.95;11.68;;;;;;;;;;5092855;28;20052;-60
2024/03/01 01:51:46;;;;;;;16.55;12.23;;;;;;;;;;5090042;28;20060;-60
2024/03/01 01:54:14;;;;;;;16.40;11.35;;;;;;;;;;5092318;28;20063;-59
2024/03/01 01:56:42;;;;;;;16.10;11.88;;;;;;;;;;5092474;28;20056;-60
2024/03/01 01:59:09;;;;;;;15.98;10.85;;;;;;;;;;5092283;28;20052;-59
2024/03/01 02:01:36;;;;;;;16.23;11.98;;;;;;;;;;5092325;28;20051;-60
2024/03/01 02:04:03;;;;;;;16.42;11.48;;;;;;;;;;5092507;28;20052;-60
2024/03/01 02:06:30;;;;;;;15.30;11.35;;;;;;;;;;5096102;28;20428;-60
2024/03/01 02:08:57;;;;;;;17.75;12.18;;;;;;;;;;5096265;28;20060;-60
2024/03/01 02:11:25;;;;;;;14.98;11.70;;;;;;;;;;5095974;28;20048;-60
2024/03/01 02:13:54;;;;;;;14.55;11.43;;;;;;;;;;5096312;28;20055;-61
2024/03/01 02:16:21;;;;;;;15.45;10.73;;;;;;;;;;5095918;28;20055;-61
2024/03/01 02:18:50;;;;;;;16.67;11.20;;;;;;;;;;5095687;28;20051;-60
2024/03/01 02:21:22;;;;;;;17.40;11.20;;;;;;;;;;5095963;28;20482;-60
2024/03/01 02:23:50;;;;;;;14.30;10.95;;;;;;;;;;5096011;28;20052;-60
2024/03/01 02:26:17;;;;;;;15.48;11.43;;;;;;;;;;5095628;28;20055;-60
2024/03/01 02:28:44;;;;;;;15.77;11.38;;;;;;;;;;5095878;28;20063;-60
2024/03/01 02:31:11;;;;;;;18.10;12.45;;;;;;;;;;5095939;28;20075;-61
2024/03/01 02:33:38;;;;;;;17.00;11.80;;;;;;;;;;5095850;28;20412;-61
2024/03/01 02:36:06;;;;;;;17.45;12.30;;;;;;;;;;5095828;28;20059;-60
2024/03/01 02:38:32;;;;;;;17.55;12.32;;;;;;;;;;5095710;28;20063;-60
2024/03/01 02:41:01;;;;;;;15.85;11.90;;;;;;;;;;5095548;28;20055;-60
2024/03/01 02:43:27;;;;;;;16.25;11.73;;;;;;;;;;5095583;28;20059;-60
2024/03/01 02:45:54;;;;;;;17.45;12.48;;;;;;;;;;5095660;28;20055;-60
2024/03/01 02:48:21;;;;;;;18.90;13.00;;;;;;;;;;5095237;28;20052;-60
2024/03/01 02:50:48;;;;;;;18.55;13.23;;;;;;;;;;5095248;28;20048;-61
2024/03/01 02:53:14;;;;;;;17.98;12.73;;;;;;;;;;5095497;28;20048;-60
2024/03/01 02:55:42;;;;;;;16.52;12.35;;;;;;;;;;5095219;28;20496;-61
2024/03/01 02:58:10;;;;;;;17.85;13.40;;;;;;;;;;5095384;28;20052;-60
2024/03/01 03:00:37;;;;;;;16.33;12.63;;;;;;;;;;5095322;28;20489;-60
2024/03/01 03:03:04;;;;;;;19.67;13.60;;;;;;;;;;5095145;28;20056;-60
2024/03/01 03:05:31;;;;;;;19.63;13.25;;;;;;;;;;5095013;28;20044;-61
2024/03/01 03:07:58;;;;;;;21.13;13.82;;;;;;;;;;5095255;28;20056;-61
2024/03/01 03:10:25;;;;;;;17.25;12.43;;;;;;;;;;5095012;28;20499;-60
2024/03/01 03:12:52;;;;;;;19.05;13.25;;;;;;;;;;5095056;28;20048;-60
2024/03/01 03:15:20;;;;;;;18.65;13.13;;;;;;;;;;5094597;28;20048;-60
2024/03/01 03:17:47;;;;;;;16.40;12.20;;;;;;;;;;5094684;28;20051;-60
2024/03/01 03:20:16;;;;;;;19.60;12.68;;;;;;;;;;5094835;28;20051;-60
2024/03/01 03:22:44;;;;;;;18.85;12.95;;;;;;;;;;5094875;28;20055;-60
2024/03/01 03:25:12;;;;;;;17.55;12.40;;;;;;;;;;5094801;28;20048;-60
2024/03/01 03:27:39;;;;;;;17.15;12.52;;;;;;;;;;5094560;28;20055;-60
2024/03/01 03:30:07;;;;;;;17.75;12.43;;;;;;;;;;5094759;28;20059;-60
2024/03/01 03:32:35;;;;;;;18.52;12.82;;;;;;;;;;5094481;28;20382;-59
2024/03/01 03:35:02;;;;;;;17.40;12.80;;;;;;;;;;5094647;28;20508;-60
2024/03/01 03:37:28;;;;;;;18.67;12.38;;;;;;;;;;5094643;28;20393;-60
2024/03/01 03:39:55;;;;;;;19.27;12.85;;;;;;;;;;5094453;28;20401;-60
2024/03/01 03:42:22;;;;;;;19.27;13.05;;;;;;;;;;5094411;28;20465;-60
2024/03/01 03:44:49;;;;;;;18.27;12.32;;;;;;;;;;5094186;28;20056;-60
2024/03/01 03:47:16;;;;;;;16.00;11.43;;;;;;;;;;5094378;28;20052;-60
2024/03/01 03:49:46;;;;;;;19.20;12.52;;;;;;;;;;5094393;28;20056;-61
2024/03/01 03:52:13;;;;;;;18.17;12.75;;;;;;;;;;5094093;28;20490;-61
2024/03/01 03:54:40;;;;;;;20.13;13.50;;;;;;;;;;5093714;28;20048;-61
2024/03/01 03:57:05;;;;;;;18.38;13.15;;;;;;;;;;5093724;28;20056;-60
2024/03/01 03:59:32;;;;;;;18.13;12.98;;;;;;;;;;5094117;28;20106;-61
2024/03/01 04:01:59;;;;;;;17.55;12.20;;;;;;;;;;5094091;28;20055;-60
2024/03/01 04:04:26;;;;;;;16.50;11.52;;;;;;;;;;5094125;28;20059;-61
2024/03/01 04:06:54;;;;;;;17.92;12.30;;;;;;;;;;5093672;28;20417;-60
2024/03/01 04:09:21;;;;;;;16.15;12.30;;;;;;;;;;5094083;28;20147;-60
2024/03/01 04:11:47;;;;;;;18.33;11.75;;;;;;;;;;5093552;28;20146;-60
2024/03/01 04:14:14;;;;;;;15.15;11.25;;;;;;;;;;5093399;28;20059;-60
2024/03/01 04:16:41;;;;;;;15.98;11.25;;;;;;;;;;5093713;28;20055;-60
2024/03/01 04:19:08;;;;;;;15.77;11.77;;;;;;;;;;5093125;28;20421;-61
2024/03/01 04:21:36;;;;;;;17.52;11.15;;;;;;;;;;5093525;28;20055;-61
2024/03/01 04:24:08;;;;;;;17.02;12.18;;;;;;;;;;5093405;28;20059;-61
2024/03/01 04:26:35;;;;;;;19.13;11.82;;;;;;;;;;5093456;28;20405;-61
2024/03/01 04:29:02;;;;;;;17.00;11.38;;;;;;;;;;5093351;28;20059;-60
2024/03/01 04:31:29;;;;;;;17.00;11.80;;;;;;;;;;5093166;28;20051;-60
2024/03/01 04:33:56;;;;;;;17.65;12.10;;;;;;;;;;5093550;28;20059;-60
2024/03/01 04:36:23;;;;;;;19.83;11.82;;;;;;;;;;5092991;28;20056;-61
2024/03/01 04:38:50;;;;;;;16.30;11.32;;;;;;;;;;5092935;28;20052;-61
2024/03/01 04:41:18;;;;;;;15.82;11.38;;;;;;;;;;5093070;28;20055;-60
2024/03/01 04:43:45;;;;;;;15.68;11.20;;;;;;;;;;5093282;28;20056;-60
2024/03/01 04:46:12;;;;;;;16.77;11.68;;;;;;;;;;5093234;28;20048;-60
2024/03/01 04:48:38;;;;;;;15.88;11.65;;;;;;;;;;5093272;28;20055;-60
2024/03/01 04:51:08;;;;;;;16.30;11.32;;;;;;;;;;5093258;28;20241;-59
2024/03/01 04:53:35;;;;;;;14.82;11.07;;;;;;;;;;5093299;28;20079;-60
2024/03/01 04:56:02;;;;;;;15.77;11.00;;;;;;;;;;5093236;28;20055;-60
2024/03/01 04:58:30;;;;;;;14.80;11.18;;;;;;;;;;5093265;28;20048;-61
2024/03/01 05:00:59;;;;;;;17.13;12.00;;;;;;;;;;5092836;28;20059;-61
2024/03/01 05:03:28;;;;;;;15.75;10.93;;;;;;;;;;5093135;28;20058;-61
2024/03/01 05:05:55;;;;;;;13.73;9.67;;;;;;;;;;5093015;28;20444;-61
2024/03/01 05:08:22;;;;;;;17.45;10.77;;;;;;;;;;5093125;28;20054;-61
2024/03/01 05:10:49;;;;;;;16.00;10.77;;;;;;;;;;5092940;28;20503;-61
2024/03/01 05:13:17;;;;;;;15.18;10.73;;;;;;;;;;5093131;28;20059;-61
2024/03/01 05:15:45;;;;;;;14.88;11.07;;;;;;;;;;5092969;28;20056;-61
2024/03/01 05:18:12;;;;;;;16.25;10.07;;;;;;;;;;5092350;28;20516;-61
2024/03/01 05:20:39;;;;;;;15.68;10.75;;;;;;;;;;5092577;28;20055;-61
2024/03/01 05:23:06;;;;;;;14.32;9.88;;;;;;;;;;5092937;28;20400;-60
2024/03/01 05:25:33;;;;;;;14.10;9.95;;;;;;;;;;5092744;28;20056;-60
2024/03/01 05:28:00;;;;;;;11.73;8.57;;;;;;;;;;5092810;28;20052;-61
2024/03/01 05:30:27;;;;;;;14.88;10.30;;;;;;;;;;5092894;28;20413;-62
2024/03/01 05:32:55;;;;;;;15.65;10.30;;;;;;;;;;5092710;28;20381;-61
2024/03/01 05:35:23;;;;;;;14.00;9.30;;;;;;;;;;5092829;28;20052;-61
2024/03/01 05:37:50;;;;;;;15.90;10.35;;;;;;;;;;5092489;28;20055;-61
2024/03/01 05:40:20;;;;;;;13.40;9.07;;;;;;;;;;5094920;28;20059;-61
2024/03/01 05:42:47;;;;;;;14.73;9.75;;;;;;;;;;5096675;28;20059;-61
2024/03/01 05:45:14;;;;;;;13.18;9.25;;;;;;;;;;5096857;28;20056;-61
2024/03/01 05:47:42;;;;;;;12.57;8.93;;;;;;;;;;5096491;28;20405;-61
2024/03/01 05:50:11;;;;;;;13.30;9.55;;;;;;;;;;5096685;28;20056;-61
2024/03/01 05:52:38;;;;;;;13.35;10.15;;;;;;;;;;5096580;28;20044;-60
2024/03/01 05:55:08;;;;;;;15.80;10.30;;;;;;;;;;5096209;28;20060;-61
2024/03/01 05:57:35;;;;;;;;;;;;;;;;;;5097149;28;20375;-59
2024/03/01 06:00:09;;;;;;;14.75;9.63;;;;;;;;;;5096381;28;20273;-61
2024/03/01 06:02:36;;;;;;;14.02;9.88;;;;;;;;;;5096122;28;20051;-60
2024/03/01 06:05:03;;;;;;;15.98;9.82;;;;;;;;;;5096308;28;20056;-61
2024/03/01 06:07:31;;;;;;;15.98;9.45;;;;;;;;;;5096251;28;20405;-61
2024/03/01 06:09:58;;;;;;;16.13;10.45;;;;;;;;;;5095951;28;20052;-60
2024/03/01 06:12:24;;;;;;;15.07;9.98;;;;;;;;;;5095799;28;20063;-60
2024/03/01 06:14:51;;;;;;;13.52;9.32;;;;;;;;;;5096078;28;20052;-60
2024/03/01 06:17:18;;;;;;;13.65;9.63;;;;;;;;;;5095689;28;20413;-61
2024/03/01 06:19:45;;;;;;;12.65;9.65;;;;;;;;;;5096143;28;20059;-64
2024/03/01 06:22:12;;;;;;;12.57;9.18;;;;;;;;;;5095761;28;20400;-60
2024/03/01 06:24:40;;;;;;;14.23;9.18;;;;;;;;;;5095903;28;20397;-60
2024/03/01 06:27:07;;;;;;;13.27;8.90;;;;;;;;;;5095329;28;20052;-60
2024/03/01 06:29:34;;;;;;;13.00;9.05;;;;;;;;;;5095903;28;20382;-60
2024/03/01 06:32:01;;;;;;;12.52;9.55;;;;;;;;;;5095741;28;20059;-60
2024/03/01 06:34:28;;;;;;;12.88;9.48;;;;;;;;;;5095555;28;20066;-60
2024/03/01 06:36:55;;;;;;;12.90;9.20;;;;;;;;;;5095744;28;20527;-60
2024/03/01 06:39:22;;;;;;;12.30;9.05;;;;;;;;;;5095822;28;20063;-60
2024/03/01 06:41:50;;;;;;;13.02;9.13;;;;;;;;;;5095145;28;20047;-60
2024/03/01 06:44:22;;;;;;;12.35;9.25;;;;;;;;;;5095715;28;20055;-60
2024/03/01 06:46:49;;;;;;;13.07;9.00;;;;;;;;;;5095454;28;20048;-61
2024/03/01 06:49:16;;;;;;;12.80;9.35;;;;;;;;;;5095637;28;20052;-60
2024/03/01 06:51:43;;;;;;;12.20;9.10;;;;;;;;;;5094559;28;20071;-60
2024/03/01 06:54:10;;;;;;;13.80;9.27;;;;;;;;;;5095434;28;20048;-60
2024/03/01 06:56:39;;;;;;;14.52;9.57;;;;;;;;;;5095276;28;20067;-60
2024/03/01 06:59:08;;;;;;;12.68;9.00;;;;;;;;;;5095429;28;20059;-60
2024/03/01 07:01:35;;;;;;;12.88;8.70;;;;;;;;;;5094894;28;20052;-60
2024/03/01 07:04:01;;;;;;;11.95;9.00;;;;;;;;;;5095371;28;20485;-60
2024/03/01 07:06:29;;;;;;;15.35;9.15;;;;;;;;;;5095034;28;20409;-60
2024/03/01 07:08:56;;;;;;;12.43;8.57;;;;;;;;;;5094729;28;20516;-60
2024/03/01 07:11:25;;;;;;;12.23;8.27;;;;;;;;;;5094860;28;20485;-60
2024/03/01 07:13:52;;;;;;;13.55;8.95;;;;;;;;;;5094960;28;20067;-60
2024/03/01 07:16:20;;;;;;;12.82;8.90;;;;;;;;;;5094949;28;20481;-60
2024/03/01 07:18:47;;;;;;;11.30;8.25;;;;;;;;;;5094361;28;20055;-60
2024/03/01 07:21:14;;;;;;;11.35;8.40;;;;;;;;;;5094871;28;20066;-59
2024/03/01 07:23:41;;;;;;;13.20;8.82;;;;;;;;;;5094777;28;20055;-60
2024/03/01 07:26:08;;;;;;;11.05;8.07;;;;;;;;;;5094789;28;20056;-61
2024/03/01 07:28:34;;;;;;;13.88;9.13;;;;;;;;;;5094776;28;20497;-60
2024/03/01 07:31:02;;;;;;;12.10;8.88;;;;;;;;;;5094670;28;20048;-62
2024/03/01 07:33:31;;;;;;;13.43;8.82;;;;;;;;;;5094272;28;20051;-60
2024/03/01 07:35:58;;;;;;;13.02;8.95;;;;;;;;;;5094247;28;20055;-60
2024/03/01 07:38:25;;;;;;;10.75;8.00;;;;;;;;;;5094622;28;20059;-60
2024/03/01 07:40:51;;;;;;;12.57;8.73;;;;;;;;;;5094441;28;20066;-61
2024/03/01 07:43:19;;;;;;;12.48;8.80;;;;;;;;;;5093851;28;20052;-60
2024/03/01 07:45:45;;;;;;;13.80;8.93;;;;;;;;;;5094460;28;20133;-60
2024/03/01 07:48:12;;;;;;;12.90;8.10;;;;;;;;;;5094397;28;20382;-60
2024/03/01 07:50:40;;;;;;;11.50;8.48;;;;;;;;;;5093985;28;20047;-60
2024/03/01 07:53:08;;;;;;;11.32;7.90;;;;;;;;;;5094122;28;20055;-60
2024/03/01 07:55:35;;;;;;;12.05;8.70;;;;;;;;;;5093694;28;20056;-60
2024/03/01 07:58:02;;;;;;;14.70;9.18;;;;;;;;;;5093982;28;20063;-60
2024/03/01 08:00:29;;;;;;;11.63;8.57;;;;;;;;;;5093858;28;20055;-60
2024/03/01 08:03:05;;;;;;;14.38;9.18;;;;;;;;;;5093131;28;20044;-60
2024/03/01 08:05:32;;;;;;;11.88;9.05;;;;;;;;;;5093968;28;20056;-60
2024/03/01 08:08:00;;;;;;;12.57;9.10;;;;;;;;;;5094084;28;20056;-60
2024/03/01 08:10:31;;;;;;;12.93;9.52;;;;;;;;;;5093488;28;20059;-60
2024/03/01 08:12:58;;;;;;;11.45;8.57;;;;;;;;;;5093590;28;20397;-59
2024/03/01 08:15:28;;;;;;;13.32;9.38;;;;;;;;;;5093793;28;20165;-60
2024/03/01 08:17:55;;;;;;;14.07;9.63;;;;;;;;;;5093203;28;20048;-60
2024/03/01 08:20:27;;;;;;;11.23;8.60;;;;;;;;;;5093646;28;20082;-60
2024/03/01 08:22:54;;;;;;;10.93;8.50;;;;;;;;;;5093434;28;20048;-60
2024/03/01 08:25:22;;;;;;;13.38;8.90;;;;;;;;;;5093324;28;20052;-60
2024/03/01 08:27:52;;;;;;;12.70;9.00;;;;;;;;;;5093463;28;20052;-64
2024/03/01 08:30:28;;;;;;;11.88;9.20;;;;;;;;;;5093160;28;20051;-60
2024/03/01 08:32:56;;;;;;;11.02;8.38;;;;;;;;;;5093429;28;20396;-60
2024/03/01 08:35:23;;;;;;;12.13;9.25;;;;;;;;;;5093323;28;20059;-60
2024/03/01 08:37:50;;;;;;;12.48;9.18;;;;;;;;;;5092972;28;20056;-59
2024/03/01 08:40:42;;;;;;;11.45;9.07;;;;;;;;;;5092992;28;20527;-60
2024/03/01 08:43:10;;;;;;;10.45;7.93;;;;;;;;;;5092955;28;20044;-60
2024/03/01 08:45:42;;;;;;;11.45;8.80;;;;;;;;;;5093322;28;20055;-59
2024/03/01 08:48:12;;;;;;;11.70;8.65;;;;;;;;;;5092961;28;20481;-59
2024/03/01 08:50:44;;;;;;;14.88;9.13;;;;;;;;;;5092785;28;20056;-59
2024/03/01 08:53:27;;;;;;;11.13;8.77;;;;;;;;;;5092932;28;20055;-58
2024/03/01 08:55:55;;;;;;;12.88;9.45;;;;;;;;;;5092296;28;20047;-60
2024/03/01 08:58:25;;;;;;;13.05;9.35;;;;;;;;;;5092807;28;20052;-59
2024/03/01 09:00:53;;;;;;;12.63;10.27;;;;;;;;;;5092788;28;20516;-60
2024/03/01 09:03:23;;;;;;;14.60;10.57;;;;;;;;;;5092850;28;20393;-59
2024/03/01 09:05:51;;;;;;;15.52;10.55;;;;;;;;;;5092926;28;20048;-60
2024/03/01 09:08:19;;;;;;;14.60;10.70;;;;;;;;;;5092884;28;20052;-61
2024/03/01 09:10:46;;;;;;;14.10;11.18;;;;;;;;;;5092504;28;20071;-61
2024/03/01 09:13:15;;;;;;;14.27;11.48;;;;;;;;;;5092696;28;20052;-61
2024/03/01 09:15:44;;;;;;;10.60;9.13;;;;;;;;;;5092911;28;20063;-60
2024/03/01 09:18:24;;;;;;;12.95;10.10;;;;;;;;;;5092151;28;20067;-59
2024/03/01 09:20:51;;;;;;;10.68;7.55;;;;;;;;;;5092590;28;20055;-59
2024/03/01 09:23:18;;;;;;;7.47;6.68;;;;;;;;;;5092311;28;20052;-60
2024/03/01 09:26:00;;;;;;;6.40;5.53;;;;;;;;;;5092629;28;20048;-60
2024/03/01 09:28:28;;;;;;;6.25;5.63;;;;;;;;;;5092818;28;20052;-60
2024/03/01 09:30:55;;;;;;;5.57;5.07;;;;;;;;;;5092721;28;20048;-59
2024/03/01 09:33:22;;;;;;;6.10;5.22;;;;;;;;;;5092501;28;20048;-60
2024/03/01 09:35:52;;;;;;;6.20;4.70;;;;;;;;;;5092699;28;20048;-59
2024/03/01 09:38:20;;;;;;;5.53;4.68;;;;;;;;;;5092659;28;20075;-60
2024/03/01 09:41:08;;;;;;;5.65;4.50;;;;;;;;;;5092536;28;20052;-60
2024/03/01 09:43:40;;;;;;;5.13;4.30;;;;;;;;;;5092381;28;20370;-60
2024/03/01 09:46:07;;;;;;;5.80;4.03;;;;;;;;;;5092165;28;20055;-60
2024/03/01 09:48:43;;;;;;;4.05;3.60;;;;;;;;;;5092286;28;20063;-60
2024/03/01 09:51:18;;;;;;;5.68;3.88;;;;;;;;;;5092015;28;20493;-59
2024/03/01 09:53:53;;;;;;;4.05;3.65;;;;;;;;;;5092512;28;20051;-60
2024/03/01 09:56:24;;;;;;;4.68;3.42;;;;;;;;;;5092005;28;20060;-59
2024/03/01 09:58:56;;;;;;;4.35;3.78;;;;;;;;;;5092469;28;20450;-60
2024/03/01 10:01:28;;;;;;;4.13;3.70;;;;;;;;;;5092211;28;20048;-59
2024/03/01 10:04:03;;;;;;;4.15;3.72;;;;;;;;;;5092466;28;20474;-60
2024/03/01 10:06:40;;;;;;;4.28;3.58;;;;;;;;;;5092355;28;20494;-60
2024/03/01 10:09:11;;;;;;;4.65;3.30;;;;;;;;;;5092554;28;20059;-60
2024/03/01 10:11:45;;;;;;;4.43;3.72;;;;;;;;;;5092228;28;20052;-60
2024/03/01 10:14:18;;;;;;;4.05;3.30;;;;;;;;;;5092414;28;20051;-59
2024/03/01 10:16:56;;;;;;;4.65;3.70;;;;;;;;;;5091873;28;20508;-60
2024/03/01 10:19:31;;;;;;;3.35;2.90;;;;;;;;;;5091694;28;20063;-60
2024/03/01 10:22:08;;;;;;;4.28;3.88;;;;;;;;;;5091921;28;20056;-60
2024/03/01 10:24:56;;;;;;;4.45;3.80;;;;;;;;;;5091824;28;20059;-60
2024/03/01 10:27:26;;;;;;;4.38;3.20;;;;;;;;;;5095702;28;20055;-61
2024/03/01 10:29:59;;;;;;;3.97;2.70;;;;;;;;;;5095765;28;20052;-60
2024/03/01 10:32:30;;;;;;;3.65;2.97;;;;;;;;;;5095521;28;20043;-61
2024/03/01 10:35:02;;;;;;;3.00;2.70;;;;;;;;;;5095397;28;20052;-60
2024/03/01 10:37:33;;;;;;;4.22;3.05;;;;;;;;;;5095720;28;20055;-60
2024/03/01 10:40:07;;;;;;;4.28;2.80;;;;;;;;;;5095432;28;20429;-60
2024/03/01 10:42:36;;;;;;;3.67;2.80;;;;;;;;;;5095360;28;20063;-59
2024/03/01 10:45:06;;;;;;;3.47;2.85;;;;;;;;;;5095456;28;20047;-59
2024/03/01 10:47:34;;;;;;;3.83;2.92;;;;;;;;;;5095155;28;20051;-59
2024/03/01 10:50:07;;;;;;;3.13;2.83;;;;;;;;;;5095494;28;20489;-60
2024/03/01 10:52:35;;;;;;;3.50;3.10;;;;;;;;;;5095331;28;20059;-60
2024/03/01 10:55:05;;;;;;;3.75;2.78;;;;;;;;;;5095323;28;20051;-60
2024/03/01 10:57:34;;;;;;;3.63;2.75;;;;;;;;;;5095321;28;20405;-60
2024/03/01 11:00:06;;;;;;;3.20;2.90;;;;;;;;;;5095047;28;20512;-60
2024/03/01 11:02:37;;;;;;;4.68;3.70;;;;;;;;;;5095087;28;20382;-60
2024/03/01 11:05:06;;;;;;;4.90;2.72;;;;;;;;;;5094660;28;20055;-60
2024/03/01 11:07:40;;;;;;;3.10;2.80;;;;;;;;;;5094901;28;20056;-60
2024/03/01 11:10:09;;;;;;;2.85;2.42;;;;;;;;;;5094797;28;20536;-60
2024/03/01 11:12:41;;;;;;;3.50;2.47;;;;;;;;;;5094853;28;20412;-61
2024/03/01 11:15:13;;;;;;;3.00;2.50;;;;;;;;;;5095164;28;20048;-61
2024/03/01 11:17:42;;;;;;;2.85;2.25;;;;;;;;;;5094646;28;20056;-61
2024/03/01 11:20:13;;;;;;;2.58;2.15;;;;;;;;;;5094796;28;20063;-61
2024/03/01 11:22:43;;;;;;;3.05;2.25;;;;;;;;;;5094670;28;20048;-61
2024/03/01 11:25:11;;;;;;;2.85;2.22;;;;;;;;;;5095104;28;20485;-61
2024/03/01 11:27:43;;;;;;;3.17;2.25;;;;;;;;;;5095129;28;20052;-61
2024/03/01 11:30:12;;;;;;;2.00;1.60;;;;;;;;;;5094916;28;20063;-61
2024/03/01 11:32:42;;;;;;;2.85;1.83;;;;;;;;;;5094886;28;20055;-61
2024/03/01 11:35:11;;;;;;;2.60;1.70;;;;;;;;;;5094566;28;20076;-61
2024/03/01 11:37:42;;;;;;;2.72;1.50;;;;;;;;;;5094603;28;20056;-61
2024/03/01 11:40:10;;;;;;;1.70;1.35;;;;;;;;;;5094789;28;20404;-61
2024/03/01 11:42:46;;;;;;;2.10;1.40;;;;;;;;;;5094447;28;20155;-61
2024/03/01 11:45:18;;;;;;;1.70;1.50;;;;;;;;;;5094211;28;20055;-61
2024/03/01 11:47:55;;;;;;;1.85;1.63;;;;;;;;;;5094345;28;20505;-61
2024/03/01 11:50:37;;;;;;;1.95;1.48;;;;;;;;;;5094446;28;20056;-61
2024/03/01 11:53:11;;;;;;;2.15;1.95;;;;;;;;;;5091700;28;20059;-62
2024/03/01 11:55:43;;;;;;;2.22;1.70;;;;;;;;;;5093922;28;20059;-61
2024/03/01 11:58:24;;;;;;;2.90;2.00;;;;;;;;;;5094360;28;20048;-61
2024/03/01 12:01:00;;;;;;;2.20;1.90;;;;;;;;;;5094342;28;20051;-61
2024/03/01 12:03:48;;;;;;;2.10;1.90;;;;;;;;;;5094287;28;20047;-61
2024/03/01 12:06:22;;;;;;;2.25;2.05;;;;;;;;;;5067884;28;20056;-61
2024/03/01 12:08:54;;;;;;;2.63;2.05;;;;;;;;;;5094017;28;20063;-60
2024/03/01 12:11:23;;;;;;;2.25;1.92;;;;;;;;;;5093791;28;20055;-61
2024/03/01 12:13:51;;;;;;;2.28;2.00;;;;;;;;;;5094061;28;20059;-61
2024/03/01 12:16:22;;;;;;;1.75;1.48;;;;;;;;;;5094546;28;20526;-61
2024/03/01 12:18:52;;;;;;;1.73;1.38;;;;;;;;;;5096168;28;20063;-61
2024/03/01 12:21:26;;;;;;;1.50;1.30;;;;;;;;;;5093682;28;20059;-60
2024/03/01 12:23:59;;;;;;;2.22;1.52;;;;;;;;;;5093835;28;20059;-60
2024/03/01 12:26:29;;;;;;;2.00;1.33;;;;;;;;;;5093887;28;20056;-60
2024/03/01 12:29:04;;;;;;;2.45;1.23;;;;;;;;;;5093896;28;20059;-61
2024/03/01 12:31:36;;;;;;;2.30;1.20;;;;;;;;;;5093455;28;20052;-61
2024/03/01 12:34:11;;;;;;;2.13;1.10;;;;;;;;;;5093896;28;20047;-60
2024/03/01 12:36:42;;;;;;;1.25;0.93;;;;;;;;;;5093675;28;20413;-60
2024/03/01 12:39:11;;;;;;;1.50;1.08;;;;;;;;;;5093744;28;20056;-61
2024/03/01 12:41:44;;;;;;;1.27;1.00;;;;;;;;;;5093062;28;20074;-61
2024/03/01 12:44:16;;;;;;;1.92;1.00;;;;;;;;;;5093725;28;20047;-60
2024/03/01 12:46:56;;;;;;;2.03;1.00;;;;;;;;;;5093186;28;20052;-60
2024/03/01 12:49:30;;;;;;;1.70;0.90;;;;;;;;;;5093190;28;20078;-61
2024/03/01 12:52:01;;;;;;;1.25;0.75;;;;;;;;;;5092855;28;20051;-61
2024/03/01 12:54:35;;;;;;;1.40;0.70;;;;;;;;;;5093256;28;20055;-60
2024/03/01 12:57:09;;;;;;;1.05;0.70;;;;;;;;;;5093178;28;20070;-60
2024/03/01 12:59:39;;;;;;;1.63;0.50;;;;;;;;;;5092725;28;20063;-60
2024/03/01 13:02:25;;;;;;;1.25;0.70;;;;;;;;;;5092644;28;20059;-60
2024/03/01 13:05:00;;;;;;;1.27;0.60;;;;;;;;;;5092401;28;20040;-60
2024/03/01 13:07:30;;;;;;;1.42;0.80;;;;;;;;;;5092825;28;20055;-60
2024/03/01 13:09:59;;;;;;;1.40;0.77;;;;;;;;;;5092772;28;20056;-60
2024/03/01 13:12:30;;;;;;;1.30;0.70;;;;;;;;;;5092879;28;20052;-61
2024/03/01 13:15:03;;;;;;;1.42;0.75;;;;;;;;;;5092376;28;20052;-60
2024/03/01 13:17:35;;;;;;;1.85;0.93;;;;;;;;;;5092258;28;20052;-60
2024/03/01 13:20:10;;;;;;;1.40;0.80;;;;;;;;;;5092886;28;20397;-60
2024/03/01 13:22:42;;;;;;;0.90;0.63;;;;;;;;;;5092586;28;20062;-60
2024/03/01 13:25:15;;;;;;;1.33;0.75;;;;;;;;;;5092700;28;20044;-60
2024/03/01 13:27:51;;;;;;;2.80;1.00;;;;;;;;;;5092844;28;20055;-60
2024/03/01 13:30:21;;;;;;;2.85;1.02;;;;;;;;;;5092555;28;20055;-60
2024/03/01 13:32:50;;;;;;;2.53;0.80;;;;;;;;;;5092562;28;20052;-60
2024/03/01 13:35:22;;;;;;;1.30;0.80;;;;;;;;;;5092798;28;20056;-60
2024/03/01 13:37:54;;;;;;;1.15;0.80;;;;;;;;;;5092503;28;20048;-59
2024/03/01 13:40:27;;;;;;;1.42;0.73;;;;;;;;;;5092406;28;20412;-60
2024/03/01 13:42:57;;;;;;;2.78;0.80;;;;;;;;;;5092586;28;20052;-60
2024/03/01 13:45:27;;;;;;;1.30;0.70;;;;;;;;;;5092502;28;20048;-60
2024/03/01 13:47:53;;;;;;;;;;;;;;;;;;5093217;28;20056;-60
2024/03/01 13:50:24;;;;;;;1.15;0.73;;;;;;;;;;5092818;28;20312;-59
2024/03/01 13:52:53;;;;;;;1.90;0.80;;;;;;;;;;5092405;28;20055;-60
2024/03/01 13:55:20;;;;;;;2.08;0.77;;;;;;;;;;5092618;28;20053;-59
2024/03/01 13:57:48;;;;;;;1.50;0.85;;;;;;;;;;5092419;28;20496;-59
2024/03/01 14:00:19;;;;;;;2.03;0.70;;;;;;;;;;5092744;28;20130;-59
2024/03/01 14:02:47;;;;;;;1.85;1.10;;;;;;;;;;5096456;28;20063;-59
2024/03/01 14:05:15;;;;;;;1.80;0.93;;;;;;;;;;5096101;28;20055;-59
2024/03/01 14:07:45;;;;;;;1.48;0.85;;;;;;;;;;5096440;28;20055;-58
2024/03/01 14:10:14;;;;;;;1.30;0.80;;;;;;;;;;5096006;28;20055;-60
2024/03/01 14:12:41;;;;;;;1.25;0.68;;;;;;;;;;5075604;28;20056;-60
2024/03/01 14:15:11;;;;;;;1.27;0.80;;;;;;;;;;5075486;28;20044;-60
2024/03/01 14:17:38;;;;;;;1.35;0.73;;;;;;;;;;5075298;28;20060;-60
2024/03/01 14:20:08;;;;;;;1.40;0.70;;;;;;;;;;5075418;28;20456;-60
2024/03/01 14:22:35;;;;;;;2.30;0.90;;;;;;;;;;5075722;28;20049;-59
2024/03/01 14:25:02;;;;;;;1.48;0.65;;;;;;;;;;5075104;28;20406;-60
2024/03/01 14:27:30;;;;;;;1.95;0.70;;;;;;;;;;5075233;28;20417;-59
2024/03/01 14:29:57;;;;;;;1.00;0.50;;;;;;;;;;5074899;28;20067;-60
2024/03/01 14:32:27;;;;;;;0.98;0.50;;;;;;;;;;5075194;28;20512;-60
2024/03/01 14:34:54;;;;;;;1.10;0.57;;;;;;;;;;5075121;28;20063;-60
2024/03/01 14:37:26;;;;;;;1.10;0.57;;;;;;;;;;5075137;28;20375;-60
2024/03/01 14:39:53;;;;;;;1.70;0.70;;;;;;;;;;5074931;28;20048;-60
2024/03/01 14:42:21;;;;;;;1.08;0.55;;;;;;;;;;5074792;28;20079;-59